createdAt,value
2017-10-19T00:00:00.398Z,43.70
2017-10-19T00:01:00.422Z,43.70
2017-10-19T00:02:00.447Z,43.79
2017-10-19T00:03:00.470Z,43.51
2017-10-19T00:04:00.499Z,43.70
2017-10-19T00:05:00.520Z,43.60
2017-10-19T00:06:00.547Z,43.79
2017-10-19T00:07:00.568Z,43.88
2017-10-19T00:08:00.592Z,43.88
2017-10-19T00:09:00.617Z,43.79
2017-10-19T00:10:00.642Z,43.70
2017-10-19T00:11:00.666Z,43.60
2017-10-19T00:12:00.695Z,43.51
2017-10-19T00:13:00.715Z,43.60
2017-10-19T00:14:00.739Z,43.79
2017-10-19T00:15:00.763Z,43.70
2017-10-19T00:16:00.788Z,43.23
2017-10-19T00:17:00.813Z,43.79
2017-10-19T00:18:00.837Z,43.51
2017-10-19T00:19:00.861Z,43.32
2017-10-19T00:20:00.886Z,43.51
2017-10-19T00:21:00.910Z,43.60
2017-10-19T00:22:00.935Z,42.94
2017-10-19T00:23:00.957Z,42.27
2017-10-19T00:24:00.982Z,41.89
2017-10-19T00:25:01.008Z,41.80
2017-10-19T00:26:01.032Z,42.08
2017-10-19T00:27:01.056Z,41.80
2017-10-19T00:28:01.088Z,41.89
2017-10-19T00:29:01.105Z,41.33
2017-10-19T00:30:01.130Z,41.52
2017-10-19T00:31:01.154Z,41.42
2017-10-19T00:32:01.178Z,41.33
2017-10-19T00:33:01.203Z,40.95
2017-10-19T00:34:01.229Z,40.85
2017-10-19T00:35:01.252Z,40.57
2017-10-19T00:36:01.277Z,40.66
2017-10-19T00:37:01.302Z,40.57
2017-10-19T00:38:01.327Z,40.76
2017-10-19T00:39:01.350Z,40.57
2017-10-19T00:40:01.375Z,40.47
2017-10-19T00:41:01.399Z,40.09
2017-10-19T00:42:01.424Z,40.38
2017-10-19T00:43:01.447Z,40.66
2017-10-19T00:44:01.472Z,40.85
2017-10-19T00:45:01.497Z,40.38
2017-10-19T00:46:01.537Z,40.57
2017-10-19T00:47:01.545Z,40.19
2017-10-19T00:48:01.569Z,40.47
2017-10-19T00:49:01.594Z,40.45
2017-10-19T00:50:01.619Z,40.93
2017-10-19T00:51:01.642Z,40.66
2017-10-19T00:52:01.667Z,40.45
2017-10-19T00:53:01.692Z,40.45
2017-10-19T00:54:01.717Z,40.55
2017-10-19T00:55:01.741Z,40.83
2017-10-19T00:56:01.765Z,40.83
2017-10-19T00:57:01.790Z,40.76
2017-10-19T00:58:01.814Z,40.57
2017-10-19T00:59:01.877Z,40.66
2017-10-19T01:00:01.863Z,40.47
2017-10-19T01:01:01.887Z,40.47
2017-10-19T01:02:01.913Z,40.76
2017-10-19T01:03:01.941Z,41.14
2017-10-19T01:04:01.959Z,41.80
2017-10-19T01:05:01.985Z,41.52
2017-10-19T01:06:02.009Z,41.99
2017-10-19T01:07:02.033Z,41.89
2017-10-19T01:08:02.057Z,41.24
2017-10-19T01:09:02.082Z,41.42
2017-10-19T01:10:02.106Z,41.33
2017-10-19T01:11:02.130Z,41.89
2017-10-19T01:12:02.155Z,42.18
2017-10-19T01:13:02.178Z,42.27
2017-10-19T01:14:02.203Z,42.18
2017-10-19T01:15:02.227Z,42.08
2017-10-19T01:16:02.251Z,41.99
2017-10-19T01:17:02.275Z,41.42
2017-10-19T01:18:02.300Z,41.31
2017-10-19T01:19:02.324Z,40.76
2017-10-19T01:20:02.349Z,40.57
2017-10-19T01:21:02.373Z,40.85
2017-10-19T01:22:02.401Z,40.93
2017-10-19T01:23:02.423Z,40.85
2017-10-19T01:24:02.445Z,40.85
2017-10-19T01:25:02.481Z,41.05
2017-10-19T01:26:02.495Z,41.14
2017-10-19T01:27:02.522Z,41.61
2017-10-19T01:28:02.546Z,41.24
2017-10-19T01:29:02.567Z,41.33
2017-10-19T01:30:02.592Z,41.89
2017-10-19T01:31:02.614Z,41.88
2017-10-19T01:32:02.639Z,41.80
2017-10-19T01:33:02.664Z,40.83
2017-10-19T01:34:02.689Z,40.28
2017-10-19T01:35:02.717Z,38.67
2017-10-19T01:36:02.736Z,38.01
2017-10-19T01:37:02.760Z,37.92
2017-10-19T01:38:02.785Z,38.01
2017-10-19T01:39:02.808Z,38.10
2017-10-19T01:40:02.833Z,38.48
2017-10-19T01:41:02.859Z,38.84
2017-10-19T01:42:02.882Z,38.75
2017-10-19T01:43:02.905Z,38.84
2017-10-19T01:44:02.929Z,39.32
2017-10-19T01:45:02.953Z,38.94
2017-10-19T01:46:02.978Z,38.65
2017-10-19T01:47:03.009Z,38.09
2017-10-19T01:48:03.026Z,37.99
2017-10-19T01:49:03.050Z,38.18
2017-10-19T01:50:03.075Z,37.42
2017-10-19T01:51:03.099Z,37.71
2017-10-19T01:52:03.133Z,37.23
2017-10-19T01:53:03.147Z,36.95
2017-10-19T01:54:03.171Z,37.23
2017-10-19T01:55:03.194Z,37.52
2017-10-19T01:56:03.219Z,37.71
2017-10-19T01:57:03.244Z,37.71
2017-10-19T01:58:03.267Z,37.61
2017-10-19T01:59:03.291Z,37.42
2017-10-19T02:00:03.316Z,36.95
2017-10-19T02:01:03.340Z,36.38
2017-10-19T02:02:03.364Z,36.57
2017-10-19T02:03:03.387Z,36.47
2017-10-19T02:04:03.413Z,36.47
2017-10-19T02:05:03.436Z,36.00
2017-10-19T02:06:03.459Z,35.62
2017-10-19T02:07:03.484Z,35.15
2017-10-19T02:08:03.508Z,34.58
2017-10-19T02:09:03.532Z,34.01
2017-10-19T02:10:03.555Z,33.63
2017-10-19T02:11:03.578Z,33.44
2017-10-19T02:12:03.603Z,33.82
2017-10-19T02:13:03.633Z,34.20
2017-10-19T02:14:03.651Z,34.11
2017-10-19T02:15:03.674Z,33.73
2017-10-19T02:16:03.699Z,34.01
2017-10-19T02:17:03.722Z,33.92
2017-10-19T02:18:03.746Z,33.82
2017-10-19T02:19:03.769Z,33.73
2017-10-19T02:20:03.800Z,32.87
2017-10-19T02:21:03.817Z,32.78
2017-10-19T02:22:03.841Z,32.87
2017-10-19T02:23:03.864Z,32.68
2017-10-19T02:24:03.889Z,32.59
2017-10-19T02:25:03.911Z,32.02
2017-10-19T02:26:03.935Z,30.88
2017-10-19T02:27:03.959Z,30.32
2017-10-19T02:28:03.982Z,30.33
2017-10-19T02:29:04.006Z,30.52
2017-10-19T02:30:04.031Z,30.69
2017-10-19T02:31:04.054Z,30.99
2017-10-19T02:32:04.078Z,30.90
2017-10-19T02:33:04.100Z,31.28
2017-10-19T02:34:04.125Z,31.85
2017-10-19T02:35:04.147Z,32.23
2017-10-19T02:36:04.170Z,32.51
2017-10-19T02:37:04.197Z,32.98
2017-10-19T02:38:04.219Z,32.98
2017-10-19T02:39:04.241Z,32.98
2017-10-19T02:40:04.269Z,32.89
2017-10-19T02:41:04.307Z,32.60
2017-10-19T02:42:04.313Z,32.60
2017-10-19T02:43:04.336Z,32.23
2017-10-19T02:44:04.363Z,32.32
2017-10-19T02:45:04.385Z,32.04
2017-10-19T02:46:04.410Z,31.95
2017-10-19T02:47:04.430Z,31.95
2017-10-19T02:48:04.455Z,31.75
2017-10-19T02:49:04.478Z,31.85
2017-10-19T02:50:04.502Z,32.04
2017-10-19T02:51:04.526Z,32.23
2017-10-19T02:52:04.550Z,32.32
2017-10-19T02:53:04.574Z,32.79
2017-10-19T02:54:04.598Z,32.70
2017-10-19T02:55:04.621Z,33.56
2017-10-19T02:56:04.644Z,33.56
2017-10-19T02:57:04.673Z,33.94
2017-10-19T02:58:04.693Z,33.94
2017-10-19T02:59:04.715Z,34.41
2017-10-19T03:00:04.740Z,34.50
2017-10-19T03:01:04.764Z,35.26
2017-10-19T03:02:04.788Z,35.64
2017-10-19T03:03:04.817Z,35.93
2017-10-19T03:04:04.835Z,36.40
2017-10-19T03:05:04.861Z,36.40
2017-10-19T03:06:04.883Z,36.40
2017-10-19T03:07:04.906Z,36.40
2017-10-19T03:08:04.930Z,36.68
2017-10-19T03:09:04.954Z,37.35
2017-10-19T03:10:04.979Z,37.63
2017-10-19T03:11:05.001Z,37.82
2017-10-19T03:12:05.025Z,38.01
2017-10-19T03:13:05.050Z,38.20
2017-10-19T03:14:05.074Z,38.09
2017-10-19T03:15:05.097Z,38.09
2017-10-19T03:16:05.124Z,37.80
2017-10-19T03:17:05.146Z,38.84
2017-10-19T03:18:05.170Z,38.75
2017-10-19T03:19:05.192Z,39.32
2017-10-19T03:20:05.218Z,40.26
2017-10-19T03:21:05.240Z,40.55
2017-10-19T03:22:05.266Z,41.02
2017-10-19T03:23:05.288Z,41.02
2017-10-19T03:24:05.312Z,40.83
2017-10-19T03:25:05.335Z,40.74
2017-10-19T03:26:05.361Z,40.55
2017-10-19T03:27:05.383Z,40.74
2017-10-19T03:28:05.407Z,41.12
2017-10-19T03:29:05.431Z,41.21
2017-10-19T03:30:05.459Z,41.12
2017-10-19T03:31:05.479Z,41.78
2017-10-19T03:32:05.502Z,42.25
2017-10-19T03:33:05.526Z,42.92
2017-10-19T03:34:05.551Z,43.01
2017-10-19T03:35:05.574Z,43.20
2017-10-19T03:36:05.597Z,43.30
2017-10-19T03:37:05.631Z,43.68
2017-10-19T03:38:05.645Z,43.49
2017-10-19T03:39:05.668Z,43.39
2017-10-19T03:40:05.695Z,43.96
2017-10-19T03:41:05.725Z,43.58
2017-10-19T03:42:05.741Z,43.87
2017-10-19T03:43:05.763Z,44.06
2017-10-19T03:44:05.788Z,44.62
2017-10-19T03:45:05.811Z,44.53
2017-10-19T03:46:05.838Z,44.24
2017-10-19T03:47:05.858Z,43.96
2017-10-19T03:48:05.883Z,43.77
2017-10-19T03:49:05.909Z,43.68
2017-10-19T03:50:05.930Z,42.82
2017-10-19T03:51:05.952Z,43.11
2017-10-19T03:52:05.976Z,42.82
2017-10-19T03:53:06.000Z,42.63
2017-10-19T03:54:06.024Z,42.54
2017-10-19T03:55:06.046Z,42.82
2017-10-19T03:56:06.071Z,43.49
2017-10-19T03:57:06.094Z,43.11
2017-10-19T03:58:06.117Z,43.96
2017-10-19T03:59:06.140Z,44.62
2017-10-19T04:00:06.168Z,44.72
2017-10-19T04:01:06.214Z,45.48
2017-10-19T04:02:06.212Z,45.10
2017-10-19T04:03:06.234Z,45.48
2017-10-19T04:04:06.258Z,45.29
2017-10-19T04:05:06.283Z,45.45
2017-10-19T04:06:06.306Z,46.02
2017-10-19T04:07:06.329Z,46.59
2017-10-19T04:08:06.352Z,46.78
2017-10-19T04:09:06.376Z,46.33
2017-10-19T04:10:06.409Z,45.95
2017-10-19T04:11:06.423Z,45.95
2017-10-19T04:12:06.447Z,45.67
2017-10-19T04:13:06.472Z,45.57
2017-10-19T04:14:06.496Z,45.57
2017-10-19T04:15:06.517Z,45.86
2017-10-19T04:16:06.541Z,45.67
2017-10-19T04:17:06.564Z,45.38
2017-10-19T04:18:06.588Z,46.14
2017-10-19T04:19:06.611Z,46.42
2017-10-19T04:20:06.634Z,46.71
2017-10-19T04:21:06.658Z,46.99
2017-10-19T04:22:06.682Z,46.80
2017-10-19T04:23:06.705Z,46.23
2017-10-19T04:24:06.728Z,46.42
2017-10-19T04:25:06.751Z,46.23
2017-10-19T04:26:06.776Z,46.71
2017-10-19T04:27:06.798Z,46.80
2017-10-19T04:28:06.822Z,46.61
2017-10-19T04:29:06.847Z,46.42
2017-10-19T04:30:06.869Z,46.33
2017-10-19T04:31:06.892Z,46.42
2017-10-19T04:32:06.916Z,46.52
2017-10-19T04:33:06.940Z,46.61
2017-10-19T04:34:06.963Z,46.52
2017-10-19T04:35:06.986Z,47.18
2017-10-19T04:36:07.009Z,47.85
2017-10-19T04:37:07.033Z,47.91
2017-10-19T04:38:07.057Z,47.82
2017-10-19T04:39:07.079Z,47.72
2017-10-19T04:40:07.102Z,47.94
2017-10-19T04:41:07.127Z,47.28
2017-10-19T04:42:07.150Z,46.90
2017-10-19T04:43:07.173Z,47.06
2017-10-19T04:44:07.204Z,47.25
2017-10-19T04:45:07.221Z,47.53
2017-10-19T04:46:07.244Z,47.91
2017-10-19T04:47:07.267Z,47.72
2017-10-19T04:48:07.290Z,47.91
2017-10-19T04:49:07.314Z,47.91
2017-10-19T04:50:07.338Z,47.53
2017-10-19T04:51:07.360Z,47.91
2017-10-19T04:52:07.383Z,47.72
2017-10-19T04:53:07.409Z,47.82
2017-10-19T04:54:07.430Z,48.20
2017-10-19T04:55:07.453Z,48.20
2017-10-19T04:56:07.476Z,48.20
2017-10-19T04:57:07.499Z,47.91
2017-10-19T04:58:07.523Z,47.91
2017-10-19T04:59:07.549Z,47.75
2017-10-19T05:00:07.569Z,47.94
2017-10-19T05:01:07.594Z,48.10
2017-10-19T05:02:07.616Z,48.01
2017-10-19T05:03:07.639Z,48.20
2017-10-19T05:04:07.663Z,48.10
2017-10-19T05:05:07.686Z,48.39
2017-10-19T05:06:07.709Z,48.39
2017-10-19T05:07:07.732Z,48.20
2017-10-19T05:08:07.756Z,47.91
2017-10-19T05:09:07.779Z,48.13
2017-10-19T05:10:07.803Z,48.22
2017-10-19T05:11:07.824Z,48.20
2017-10-19T05:12:07.848Z,48.13
2017-10-19T05:13:07.871Z,47.94
2017-10-19T05:14:07.895Z,47.94
2017-10-19T05:15:07.917Z,47.94
2017-10-19T05:16:07.940Z,48.03
2017-10-19T05:17:07.964Z,47.28
2017-10-19T05:18:07.988Z,47.28
2017-10-19T05:19:08.010Z,47.18
2017-10-19T05:20:08.033Z,47.09
2017-10-19T05:21:08.056Z,47.28
2017-10-19T05:22:08.081Z,47.85
2017-10-19T05:23:08.103Z,47.47
2017-10-19T05:24:08.126Z,48.13
2017-10-19T05:25:08.176Z,48.32
2017-10-19T05:26:08.173Z,48.22
2017-10-19T05:27:08.195Z,48.49
2017-10-19T05:28:08.218Z,48.86
2017-10-19T05:29:08.242Z,48.58
2017-10-19T05:30:08.266Z,49.33
2017-10-19T05:31:08.288Z,48.96
2017-10-19T05:32:08.311Z,49.33
2017-10-19T05:33:08.335Z,49.15
2017-10-19T05:34:08.358Z,49.43
2017-10-19T05:35:08.380Z,49.90
2017-10-19T05:36:08.404Z,49.81
2017-10-19T05:37:08.427Z,49.24
2017-10-19T05:38:08.450Z,49.33
2017-10-19T05:39:08.481Z,49.24
2017-10-19T05:40:08.496Z,48.58
2017-10-19T05:41:08.522Z,48.68
2017-10-19T05:42:08.543Z,48.13
2017-10-19T05:43:08.566Z,48.22
2017-10-19T05:44:08.589Z,47.56
2017-10-19T05:45:08.613Z,48.03
2017-10-19T05:46:08.635Z,47.85
2017-10-19T05:47:08.658Z,48.03
2017-10-19T05:48:08.684Z,47.28
2017-10-19T05:49:08.704Z,46.90
2017-10-19T05:50:08.728Z,46.33
2017-10-19T05:51:08.750Z,46.71
2017-10-19T05:52:08.774Z,46.42
2017-10-19T05:53:08.796Z,46.52
2017-10-19T05:54:08.821Z,46.42
2017-10-19T05:55:08.842Z,46.42
2017-10-19T05:56:08.866Z,46.04
2017-10-19T05:57:08.890Z,45.76
2017-10-19T05:58:08.914Z,45.38
2017-10-19T05:59:08.936Z,45.10
2017-10-19T06:00:08.960Z,44.93
2017-10-19T06:01:08.984Z,45.59
2017-10-19T06:02:09.007Z,44.74
2017-10-19T06:03:09.029Z,44.55
2017-10-19T06:04:09.053Z,44.84
2017-10-19T06:05:09.076Z,44.08
2017-10-19T06:06:09.101Z,43.98
2017-10-19T06:07:09.123Z,43.70
2017-10-19T06:08:09.147Z,43.51
2017-10-19T06:09:09.171Z,43.51
2017-10-19T06:10:09.195Z,43.60
2017-10-19T06:11:09.217Z,43.32
2017-10-19T06:12:09.242Z,43.41
2017-10-19T06:13:09.264Z,43.04
2017-10-19T06:14:09.289Z,43.24
2017-10-19T06:15:09.315Z,43.34
2017-10-19T06:16:09.338Z,42.96
2017-10-19T06:17:09.361Z,43.15
2017-10-19T06:18:09.385Z,42.96
2017-10-19T06:19:09.408Z,43.05
2017-10-19T06:20:09.432Z,42.77
2017-10-19T06:21:09.456Z,42.58
2017-10-19T06:22:09.481Z,42.30
2017-10-19T06:23:09.505Z,42.01
2017-10-19T06:24:09.529Z,41.85
2017-10-19T06:25:09.554Z,41.18
2017-10-19T06:26:09.586Z,41.27
2017-10-19T06:27:09.603Z,41.08
2017-10-19T06:28:09.627Z,41.20
2017-10-19T06:29:09.651Z,40.25
2017-10-19T06:30:09.677Z,39.40
2017-10-19T06:31:09.701Z,39.11
2017-10-19T06:32:09.733Z,39.68
2017-10-19T06:33:09.750Z,38.82
2017-10-19T06:34:09.778Z,38.82
2017-10-19T06:35:09.800Z,38.16
2017-10-19T06:36:09.825Z,38.14
2017-10-19T06:37:09.851Z,38.90
2017-10-19T06:38:09.877Z,38.81
2017-10-19T06:39:09.901Z,38.81
2017-10-19T06:40:09.926Z,38.62
2017-10-19T06:41:09.953Z,37.57
2017-10-19T06:42:09.986Z,37.50
2017-10-19T06:43:10.004Z,36.74
2017-10-19T06:44:10.030Z,36.17
2017-10-19T06:45:10.059Z,35.71
2017-10-19T06:46:10.087Z,35.05
2017-10-19T06:47:10.108Z,34.21
2017-10-19T06:48:10.133Z,33.64
2017-10-19T06:49:10.160Z,32.88
2017-10-19T06:50:10.186Z,32.88
2017-10-19T06:51:10.211Z,32.21
2017-10-19T06:52:10.238Z,31.45
2017-10-19T06:53:10.264Z,31.17
2017-10-19T06:54:10.292Z,31.26
2017-10-19T06:55:10.317Z,31.45
2017-10-19T06:56:10.345Z,31.17
2017-10-19T06:57:10.371Z,31.09
2017-10-19T06:58:10.400Z,30.80
2017-10-19T06:59:10.427Z,30.23
2017-10-19T07:00:10.454Z,29.75
2017-10-19T07:01:10.481Z,29.11
2017-10-19T07:02:10.509Z,28.44
2017-10-19T07:03:10.535Z,27.30
2017-10-19T07:04:10.564Z,26.82
2017-10-19T07:05:10.605Z,27.11
2017-10-19T07:06:10.619Z,27.01
2017-10-19T07:07:10.647Z,26.73
2017-10-19T07:08:10.675Z,26.25
2017-10-19T07:09:10.704Z,26.25
2017-10-19T07:10:10.732Z,27.20
2017-10-19T07:11:10.760Z,27.60
2017-10-19T07:12:10.790Z,27.22
2017-10-19T07:13:10.818Z,27.03
2017-10-19T07:14:10.846Z,26.66
2017-10-19T07:15:10.875Z,25.81
2017-10-19T07:16:10.905Z,25.24
2017-10-19T07:17:10.940Z,23.91
2017-10-19T07:18:10.964Z,23.72
2017-10-19T07:19:10.993Z,23.72
2017-10-19T07:20:11.025Z,23.24
2017-10-19T07:21:11.065Z,23.72
2017-10-19T07:22:11.082Z,23.91
2017-10-19T07:23:11.112Z,24.66
2017-10-19T07:24:11.142Z,24.37
2017-10-19T07:25:11.176Z,25.03
2017-10-19T07:26:11.202Z,25.71
2017-10-19T07:27:11.234Z,25.61
2017-10-19T07:28:11.263Z,25.41
2017-10-19T07:29:11.295Z,25.31
2017-10-19T07:30:11.323Z,25.41
2017-10-19T07:31:11.353Z,25.41
2017-10-19T07:32:11.409Z,25.87
2017-10-19T07:33:11.416Z,26.64
2017-10-19T07:34:11.447Z,26.90
2017-10-19T07:35:11.477Z,27.67
2017-10-19T07:36:11.508Z,27.76
2017-10-19T07:37:11.539Z,27.76
2017-10-19T07:38:11.571Z,28.05
2017-10-19T07:39:11.602Z,27.95
2017-10-19T07:40:11.634Z,28.06
2017-10-19T07:41:11.664Z,27.68
2017-10-19T07:42:11.697Z,27.11
2017-10-19T07:43:11.726Z,27.11
2017-10-19T07:44:11.758Z,26.82
2017-10-19T07:45:11.789Z,27.12
2017-10-19T07:46:11.821Z,27.11
2017-10-19T07:47:11.852Z,27.20
2017-10-19T07:48:11.884Z,27.68
2017-10-19T07:49:11.917Z,27.68
2017-10-19T07:50:11.948Z,27.49
2017-10-19T07:51:11.979Z,27.78
2017-10-19T07:52:12.012Z,27.68
2017-10-19T07:53:12.043Z,27.88
2017-10-19T07:54:12.075Z,27.60
2017-10-19T07:55:12.106Z,26.66
2017-10-19T07:56:12.143Z,25.91
2017-10-19T07:57:12.171Z,24.30
2017-10-19T07:58:12.203Z,24.21
2017-10-19T07:59:12.235Z,24.11
2017-10-19T08:00:12.268Z,24.11
2017-10-19T08:01:12.300Z,23.91
2017-10-19T08:02:12.333Z,23.82
2017-10-19T08:03:12.365Z,24.19
2017-10-19T08:04:12.399Z,24.77
2017-10-19T08:05:12.431Z,24.76
2017-10-19T08:06:12.464Z,25.52
2017-10-19T08:07:12.496Z,26.18
2017-10-19T08:08:12.530Z,26.18
2017-10-19T08:09:12.565Z,25.61
2017-10-19T08:10:12.599Z,25.34
2017-10-19T08:11:12.627Z,25.15
2017-10-19T08:12:12.661Z,24.76
2017-10-19T08:13:12.694Z,25.53
2017-10-19T08:14:12.728Z,24.77
2017-10-19T08:15:12.770Z,24.96
2017-10-19T08:16:12.793Z,24.78
2017-10-19T08:17:12.828Z,24.78
2017-10-19T08:18:12.861Z,23.92
2017-10-19T08:19:12.894Z,23.36
2017-10-19T08:20:12.928Z,23.27
2017-10-19T08:21:12.961Z,22.69
2017-10-19T08:22:12.997Z,22.98
2017-10-19T08:23:13.029Z,22.69
2017-10-19T08:24:13.063Z,22.11
2017-10-19T08:25:13.096Z,22.58
2017-10-19T08:26:13.131Z,24.19
2017-10-19T08:27:13.163Z,25.12
2017-10-19T08:28:13.198Z,25.79
2017-10-19T08:29:13.232Z,26.44
2017-10-19T08:30:13.266Z,26.74
2017-10-19T08:31:13.301Z,26.93
2017-10-19T08:32:13.334Z,27.03
2017-10-19T08:33:13.368Z,27.11
2017-10-19T08:34:13.402Z,27.60
2017-10-19T08:35:13.436Z,27.90
2017-10-19T08:36:13.471Z,27.06
2017-10-19T08:37:13.504Z,26.56
2017-10-19T08:38:13.538Z,26.26
2017-10-19T08:39:13.578Z,26.64
2017-10-19T08:40:13.607Z,27.95
2017-10-19T08:41:13.641Z,29.57
2017-10-19T08:42:13.675Z,29.84
2017-10-19T08:43:13.708Z,30.51
2017-10-19T08:44:13.746Z,30.79
2017-10-19T08:45:13.777Z,31.37
2017-10-19T08:46:13.811Z,30.88
2017-10-19T08:47:13.845Z,30.62
2017-10-19T08:48:13.880Z,31.56
2017-10-19T08:49:13.914Z,31.01
2017-10-19T08:50:13.947Z,30.63
2017-10-19T08:51:13.982Z,30.73
2017-10-19T08:52:14.015Z,30.91
2017-10-19T08:53:14.049Z,30.90
2017-10-19T08:54:14.084Z,31.10
2017-10-19T08:55:14.118Z,31.47
2017-10-19T08:56:14.152Z,32.32
2017-10-19T08:57:14.186Z,33.09
2017-10-19T08:58:14.222Z,33.07
2017-10-19T08:59:14.254Z,33.07
2017-10-19T09:00:14.288Z,32.80
2017-10-19T09:01:14.323Z,33.01
2017-10-19T09:02:14.358Z,32.43
2017-10-19T09:03:14.391Z,32.04
2017-10-19T09:04:14.426Z,32.14
2017-10-19T09:05:14.461Z,32.32
2017-10-19T09:06:14.495Z,32.90
2017-10-19T09:07:14.528Z,32.82
2017-10-19T09:08:14.563Z,32.64
2017-10-19T09:09:14.599Z,30.93
2017-10-19T09:10:14.633Z,30.93
2017-10-19T09:11:14.667Z,31.40
2017-10-19T09:12:14.702Z,31.71
2017-10-19T09:13:14.739Z,30.47
2017-10-19T09:14:14.771Z,29.63
2017-10-19T09:15:14.805Z,28.78
2017-10-19T09:16:14.839Z,28.21
2017-10-19T09:17:14.875Z,27.73
2017-10-19T09:18:14.911Z,27.45
2017-10-19T09:19:14.945Z,27.81
2017-10-19T09:20:14.992Z,29.42
2017-10-19T09:21:15.016Z,30.93
2017-10-19T09:22:15.051Z,32.45
2017-10-19T09:23:15.086Z,31.80
2017-10-19T09:24:15.121Z,31.63
2017-10-19T09:25:15.157Z,32.01
2017-10-19T09:26:15.194Z,33.17
2017-10-19T09:27:15.231Z,33.07
2017-10-19T09:28:15.264Z,32.88
2017-10-19T09:29:15.301Z,32.79
2017-10-19T09:30:15.335Z,32.23
2017-10-19T09:31:15.371Z,33.18
2017-10-19T09:32:15.408Z,34.41
2017-10-19T09:33:15.543Z,34.42
2017-10-19T09:34:15.480Z,33.84
2017-10-19T09:35:15.516Z,34.12
2017-10-19T09:36:15.552Z,33.95
2017-10-19T09:37:15.589Z,34.81
2017-10-19T09:38:15.629Z,35.76
2017-10-19T09:39:15.762Z,35.68
2017-10-19T09:40:15.699Z,35.39
2017-10-19T09:41:15.736Z,34.73
2017-10-19T09:42:15.772Z,34.34
2017-10-19T09:43:15.815Z,35.21
2017-10-19T09:44:15.856Z,34.33
2017-10-19T09:45:15.883Z,35.08
2017-10-19T09:46:15.921Z,35.93
2017-10-19T09:47:15.958Z,36.41
2017-10-19T09:48:15.995Z,36.98
2017-10-19T09:49:16.033Z,37.65
2017-10-19T09:50:16.071Z,37.08
2017-10-19T09:51:16.138Z,37.19
2017-10-19T09:52:16.145Z,36.52
2017-10-19T09:53:16.182Z,37.10
2017-10-19T09:54:16.220Z,37.02
2017-10-19T09:55:16.258Z,36.64
2017-10-19T09:56:16.296Z,36.18
2017-10-19T09:57:16.335Z,36.08
2017-10-19T09:58:16.375Z,35.51
2017-10-19T09:59:16.411Z,35.39
2017-10-19T10:00:16.449Z,37.36
2017-10-19T10:01:16.487Z,39.75
2017-10-19T10:02:16.526Z,40.22
2017-10-19T10:03:16.563Z,39.76
2017-10-19T10:04:16.602Z,39.67
2017-10-19T10:05:16.641Z,39.19
2017-10-19T10:06:16.680Z,38.71
2017-10-19T10:07:16.718Z,38.41
2017-10-19T10:08:16.757Z,40.28
2017-10-19T10:09:16.796Z,42.64
2017-10-19T10:10:16.835Z,44.26
2017-10-19T10:11:16.873Z,43.97
2017-10-19T10:12:16.911Z,44.94
2017-10-19T10:13:16.951Z,45.32
2017-10-19T10:14:16.990Z,44.20
2017-10-19T10:15:17.027Z,43.44
2017-10-19T10:16:17.068Z,42.41
2017-10-19T10:17:17.105Z,41.10
2017-10-19T10:18:17.143Z,40.74
2017-10-19T10:19:17.180Z,40.55
2017-10-19T10:20:17.221Z,39.59
2017-10-19T10:21:17.259Z,39.12
2017-10-19T10:22:17.311Z,39.12
2017-10-19T10:23:17.337Z,39.65
2017-10-19T10:24:17.376Z,41.72
2017-10-19T10:25:17.415Z,43.25
2017-10-19T10:26:17.454Z,44.56
2017-10-19T10:27:17.499Z,45.63
2017-10-19T10:28:17.533Z,44.11
2017-10-19T10:29:17.572Z,43.56
2017-10-19T10:30:17.611Z,43.90
2017-10-19T10:31:17.649Z,45.63
2017-10-19T10:32:17.688Z,44.20
2017-10-19T10:33:17.727Z,43.94
2017-10-19T10:34:17.766Z,43.20
2017-10-19T10:35:17.804Z,42.34
2017-10-19T10:36:17.844Z,41.10
2017-10-19T10:37:17.882Z,40.81
2017-10-19T10:38:17.922Z,41.27
2017-10-19T10:39:17.961Z,41.39
2017-10-19T10:40:18.000Z,42.41
2017-10-19T10:41:18.040Z,43.29
2017-10-19T10:42:18.079Z,42.91
2017-10-19T10:43:18.118Z,41.58
2017-10-19T10:44:18.165Z,41.46
2017-10-19T10:45:18.196Z,41.17
2017-10-19T10:46:18.236Z,42.70
2017-10-19T10:47:18.274Z,44.04
2017-10-19T10:48:18.314Z,42.87
2017-10-19T10:49:18.358Z,43.25
2017-10-19T10:50:18.394Z,43.08
2017-10-19T10:51:18.436Z,42.91
2017-10-19T10:52:18.472Z,42.53
2017-10-19T10:53:18.512Z,41.48
2017-10-19T10:54:18.552Z,39.78
2017-10-19T10:55:18.590Z,38.45
2017-10-19T10:56:18.629Z,39.12
2017-10-19T10:57:18.670Z,39.69
2017-10-19T10:58:18.710Z,39.69
2017-10-19T10:59:18.748Z,40.55
2017-10-19T11:00:18.787Z,41.31
2017-10-19T11:01:18.828Z,41.41
2017-10-19T11:02:18.868Z,41.03
2017-10-19T11:03:18.908Z,41.22
2017-10-19T11:04:18.949Z,41.48
2017-10-19T11:05:18.987Z,42.60
2017-10-19T11:06:19.027Z,42.77
2017-10-19T11:07:19.066Z,42.85
2017-10-19T11:08:19.107Z,44.18
2017-10-19T11:09:19.147Z,44.66
2017-10-19T11:10:19.187Z,45.70
2017-10-19T11:11:19.228Z,46.66
2017-10-19T11:12:19.265Z,45.83
2017-10-19T11:13:19.310Z,43.44
2017-10-19T11:14:19.345Z,41.08
2017-10-19T11:15:19.384Z,39.17
2017-10-19T11:16:19.423Z,40.51
2017-10-19T11:17:19.463Z,40.53
2017-10-19T11:18:19.503Z,39.58
2017-10-19T11:19:19.545Z,39.46
2017-10-19T11:20:19.583Z,40.68
2017-10-19T11:21:19.622Z,40.56
2017-10-19T11:22:19.662Z,42.54
2017-10-19T11:23:19.701Z,45.23
2017-10-19T11:24:19.741Z,45.35
2017-10-19T11:25:19.781Z,44.23
2017-10-19T11:26:19.821Z,43.94
2017-10-19T11:27:19.860Z,42.24
2017-10-19T11:28:19.901Z,40.91
2017-10-19T11:29:19.940Z,40.17
2017-10-19T11:30:19.981Z,38.73
2017-10-19T11:31:20.020Z,39.02
2017-10-19T11:32:20.060Z,37.55
2017-10-19T11:33:20.100Z,39.08
2017-10-19T11:34:20.139Z,40.64
2017-10-19T11:35:20.178Z,43.66
2017-10-19T11:36:20.218Z,43.93
2017-10-19T11:37:20.259Z,44.78
2017-10-19T11:38:20.298Z,45.07
2017-10-19T11:39:20.337Z,45.45
2017-10-19T11:40:20.477Z,44.87
2017-10-19T11:41:20.415Z,44.68
2017-10-19T11:42:20.457Z,45.73
2017-10-19T11:43:20.493Z,45.73
2017-10-19T11:44:20.532Z,45.73
2017-10-19T11:45:20.574Z,44.87
2017-10-19T11:46:20.608Z,44.78
2017-10-19T11:47:20.647Z,44.85
2017-10-19T11:48:20.692Z,45.73
2017-10-19T11:49:20.724Z,45.54
2017-10-19T11:50:20.761Z,46.88
2017-10-19T11:51:20.798Z,46.11
2017-10-19T11:52:20.842Z,45.92
2017-10-19T11:53:20.875Z,45.73
2017-10-19T11:54:20.913Z,45.26
2017-10-19T11:55:20.949Z,44.31
2017-10-19T11:56:20.986Z,43.73
2017-10-19T11:57:21.024Z,43.80
2017-10-19T11:58:21.061Z,43.80
2017-10-19T11:59:21.098Z,44.09
2017-10-19T12:00:21.135Z,44.76
2017-10-19T12:01:21.171Z,44.09
2017-10-19T12:02:21.209Z,44.85
2017-10-19T12:03:21.244Z,44.67
2017-10-19T12:04:21.281Z,44.38
2017-10-19T12:05:21.318Z,44.67
2017-10-19T12:06:21.356Z,44.12
2017-10-19T12:07:21.391Z,44.40
2017-10-19T12:08:21.427Z,44.31
2017-10-19T12:09:21.465Z,44.02
2017-10-19T12:10:21.502Z,44.21
2017-10-19T12:11:21.537Z,43.93
2017-10-19T12:12:21.575Z,43.47
2017-10-19T12:13:21.611Z,42.69
2017-10-19T12:14:21.648Z,43.73
2017-10-19T12:15:21.683Z,43.73
2017-10-19T12:16:21.721Z,44.02
2017-10-19T12:17:21.758Z,43.35
2017-10-19T12:18:21.794Z,43.54
2017-10-19T12:19:21.830Z,43.73
2017-10-19T12:20:21.879Z,43.76
2017-10-19T12:21:21.902Z,43.66
2017-10-19T12:22:21.938Z,42.71
2017-10-19T12:23:21.975Z,42.88
2017-10-19T12:24:22.041Z,43.90
2017-10-19T12:25:22.048Z,45.33
2017-10-19T12:26:22.084Z,46.01
2017-10-19T12:27:22.120Z,44.42
2017-10-19T12:28:22.156Z,43.85
2017-10-19T12:29:22.196Z,42.92
2017-10-19T12:30:22.229Z,42.18
2017-10-19T12:31:22.264Z,41.23
2017-10-19T12:32:22.300Z,39.51
2017-10-19T12:33:22.337Z,40.26
2017-10-19T12:34:22.373Z,40.83
2017-10-19T12:35:22.408Z,42.43
2017-10-19T12:36:22.444Z,42.33
2017-10-19T12:37:22.481Z,42.25
2017-10-19T12:38:22.518Z,42.35
2017-10-19T12:39:22.553Z,41.42
2017-10-19T12:40:22.589Z,40.85
2017-10-19T12:41:22.626Z,39.53
2017-10-19T12:42:22.663Z,38.70
2017-10-19T12:43:22.698Z,38.03
2017-10-19T12:44:22.734Z,37.63
2017-10-19T12:45:22.772Z,38.85
2017-10-19T12:46:22.811Z,40.35
2017-10-19T12:47:22.843Z,41.97
2017-10-19T12:48:22.880Z,42.14
2017-10-19T12:49:22.916Z,43.26
2017-10-19T12:50:22.953Z,44.04
2017-10-19T12:51:22.989Z,44.31
2017-10-19T12:52:23.025Z,44.21